createdAt,value
2019-05-22T00:33:27.980Z,30.27
2019-05-22T00:35:56.710Z,28.47
2019-05-22T00:38:25.301Z,31.00
2019-05-22T00:40:57.892Z,28.87
2019-05-22T00:43:33.909Z,29.75
2019-05-22T00:46:05.330Z,28.05
2019-05-22T00:48:35.408Z,28.38
2019-05-22T00:51:05.315Z,25.40
2019-05-22T00:53:49.854Z,27.82
2019-05-22T00:56:34.756Z,25.55
2019-05-22T01:01:33.913Z,24.20
2019-05-22T01:04:03.834Z,25.72
2019-05-22T01:06:33.121Z,25.08
2019-05-22T01:09:03.010Z,25.23
2019-05-22T01:11:32.648Z,23.07
2019-05-22T01:14:02.529Z,22.37
2019-05-22T01:16:31.338Z,21.30
2019-05-22T01:19:00.389Z,22.00
2019-05-22T01:21:30.293Z,21.33
2019-05-22T01:23:59.113Z,19.37
2019-05-22T01:26:29.052Z,20.65
2019-05-22T01:28:57.301Z,17.42
2019-05-22T01:31:29.635Z,17.82
2019-05-22T01:34:02.336Z,17.92
2019-05-22T01:36:32.993Z,16.85
2019-05-22T01:39:06.138Z,16.67
2019-05-22T01:41:36.043Z,16.55
2019-05-22T01:44:05.933Z,14.98
2019-05-22T01:46:34.261Z,13.70
2019-05-22T01:49:04.386Z,14.05
2019-05-22T01:51:34.287Z,12.80
2019-05-22T01:54:02.611Z,12.53
2019-05-22T01:56:30.870Z,11.93
2019-05-22T01:58:59.298Z,11.48
2019-05-22T02:01:27.558Z,11.18
2019-05-22T02:03:59.914Z,11.57
2019-05-22T02:06:28.196Z,11.10
2019-05-22T02:09:06.429Z,10.20
2019-05-22T02:11:35.756Z,10.18
2019-05-22T02:14:10.208Z,10.40
2019-05-22T02:16:55.618Z,9.38
2019-05-22T02:19:11.982Z,9.85
2019-05-22T02:21:40.710Z,10.40
2019-05-22T02:24:09.999Z,9.70
2019-05-22T02:26:39.905Z,9.30
2019-05-22T02:29:10.734Z,9.58
2019-05-22T02:31:40.628Z,7.72
2019-05-22T02:34:09.322Z,8.90
2019-05-22T02:36:38.886Z,7.70
2019-05-22T02:39:11.606Z,8.03
2019-05-22T02:41:46.015Z,7.60
2019-05-22T02:44:15.070Z,7.70
2019-05-22T02:46:43.794Z,7.50
2019-05-22T02:49:13.678Z,7.35
2019-05-22T02:51:42.674Z,8.68
2019-05-22T02:54:11.005Z,7.60
2019-05-22T02:56:39.797Z,8.35
2019-05-22T02:59:08.749Z,9.13
2019-05-22T03:01:37.778Z,9.28
2019-05-22T03:04:07.661Z,8.45
2019-05-22T03:06:36.018Z,9.80
2019-05-22T03:09:17.033Z,9.58
2019-05-22T03:11:49.118Z,11.12
2019-05-22T03:14:17.373Z,10.18
2019-05-22T03:16:58.133Z,10.15
2019-05-22T03:19:36.665Z,9.55
2019-05-22T03:22:17.043Z,9.98
2019-05-22T03:24:46.257Z,9.30
2019-05-22T03:27:14.991Z,10.03
2019-05-22T03:29:56.029Z,9.45
2019-05-22T03:32:24.743Z,10.45
2019-05-22T03:34:53.964Z,11.45
2019-05-22T03:37:22.602Z,16.37
2019-05-22T03:39:51.323Z,15.53
2019-05-22T03:42:20.948Z,15.85
2019-05-22T03:44:51.141Z,15.60
2019-05-22T03:47:19.425Z,16.35
2019-05-22T03:49:47.846Z,16.07
2019-05-22T03:52:16.584Z,15.15
2019-05-22T03:54:45.308Z,15.75
2019-05-22T03:57:15.194Z,16.32
2019-05-22T03:59:43.530Z,17.12
2019-05-22T04:02:12.249Z,20.05
2019-05-22T04:04:41.250Z,20.12
2019-05-22T04:07:12.782Z,22.58
2019-05-22T04:09:42.979Z,22.98
2019-05-22T04:12:11.486Z,23.22
2019-05-22T04:14:40.330Z,25.97
2019-05-22T04:17:10.455Z,26.10
2019-05-22T04:19:49.270Z,26.15
2019-05-22T04:22:11.835Z,24.50
2019-05-22T04:24:41.585Z,24.57
2019-05-22T04:27:11.108Z,25.70
2019-05-22T04:29:39.372Z,25.97
2019-05-22T04:32:12.155Z,25.85
2019-05-22T04:34:40.451Z,24.70
2019-05-22T04:37:10.751Z,24.15
2019-05-22T04:39:40.664Z,23.07
2019-05-22T04:42:10.564Z,23.75
2019-05-22T04:44:44.618Z,24.52
2019-05-22T04:47:12.876Z,24.18
2019-05-22T04:49:42.114Z,24.67
2019-05-22T04:52:10.366Z,24.75
2019-05-22T04:54:38.626Z,25.43
2019-05-22T04:57:07.877Z,24.43
2019-05-22T04:59:36.565Z,25.35
2019-05-22T05:02:05.269Z,26.02
2019-05-22T05:04:33.590Z,25.52
2019-05-22T05:07:02.904Z,27.32
2019-05-22T05:09:31.633Z,24.80
2019-05-22T05:11:59.894Z,27.65
2019-05-22T05:14:28.153Z,28.32
2019-05-22T05:16:56.408Z,28.50
2019-05-22T05:19:24.665Z,26.20
2019-05-22T05:21:52.917Z,25.82
2019-05-22T05:24:21.256Z,25.43
2019-05-22T05:26:50.587Z,25.35
2019-05-22T05:29:26.340Z,23.73
2019-05-22T05:31:55.267Z,24.52
2019-05-22T05:34:35.861Z,24.30
2019-05-22T05:37:05.733Z,24.50
2019-05-22T05:39:40.071Z,22.70
2019-05-22T05:42:08.317Z,22.62
2019-05-22T05:44:36.606Z,22.05
2019-05-22T05:47:05.802Z,22.15
2019-05-22T05:49:34.058Z,21.02
2019-05-22T05:52:03.496Z,20.27
2019-05-22T05:54:31.829Z,22.22
2019-05-22T05:57:46.351Z,21.77
2019-05-22T06:00:24.177Z,21.55
2019-05-22T06:02:56.688Z,20.97
2019-05-22T06:05:25.495Z,21.17
2019-05-22T06:07:53.749Z,20.10
2019-05-22T06:10:31.603Z,20.55
2019-05-22T06:13:00.636Z,22.45
2019-05-22T06:15:47.157Z,21.25
2019-05-22T06:18:51.242Z,21.37
2019-05-22T06:21:20.061Z,21.45
2019-05-22T06:24:00.805Z,22.95
2019-05-22T06:26:38.182Z,23.35
2019-05-22T06:29:08.305Z,22.40
2019-05-22T06:31:54.933Z,22.25
2019-05-22T06:34:23.253Z,23.05
2019-05-22T06:36:51.514Z,18.40
2019-05-22T06:39:20.228Z,17.57
2019-05-22T06:41:48.485Z,18.23
2019-05-22T06:44:28.946Z,15.03
2019-05-22T06:46:58.281Z,14.40
2019-05-22T06:49:35.777Z,13.60
2019-05-22T06:52:07.429Z,11.70
2019-05-22T06:54:36.552Z,13.13
2019-05-22T06:57:07.094Z,11.53
2019-05-22T06:59:35.348Z,11.40
2019-05-22T07:02:04.178Z,10.75
2019-05-22T07:04:33.166Z,10.10
2019-05-22T07:07:01.611Z,10.30
2019-05-22T07:09:31.174Z,10.13
2019-05-22T07:11:59.802Z,9.10
2019-05-22T07:14:28.837Z,10.65
2019-05-22T07:16:58.142Z,10.43
2019-05-22T07:19:28.097Z,9.40
2019-05-22T07:21:56.725Z,10.48
2019-05-22T07:24:24.971Z,9.88
2019-05-22T07:26:54.370Z,11.05
2019-05-22T07:29:22.623Z,11.48
2019-05-22T07:31:50.952Z,10.25
2019-05-22T07:34:19.565Z,11.15
2019-05-22T07:36:47.817Z,10.48
2019-05-22T07:39:16.550Z,11.30
2019-05-22T07:41:45.293Z,9.53
2019-05-22T07:44:13.670Z,9.23
2019-05-22T07:46:41.950Z,10.53
2019-05-22T07:49:30.114Z,9.88
2019-05-22T07:52:01.800Z,10.05
2019-05-22T07:54:28.714Z,9.13
2019-05-22T07:56:56.959Z,9.15
2019-05-22T07:59:25.786Z,9.03
2019-05-22T08:01:54.405Z,9.10
2019-05-22T08:04:23.133Z,9.38
2019-05-22T08:06:51.383Z,9.33
2019-05-22T08:09:19.884Z,9.58
2019-05-22T08:11:48.501Z,10.82
2019-05-22T08:14:16.757Z,10.95
2019-05-22T08:16:45.006Z,10.00
2019-05-22T08:19:13.269Z,10.40
2019-05-22T08:21:41.521Z,10.72
2019-05-22T08:24:10.166Z,10.20
2019-05-22T08:26:53.444Z,10.68
2019-05-22T08:29:09.944Z,10.65
2019-05-22T08:31:38.917Z,10.13
2019-05-22T08:34:07.949Z,10.05
2019-05-22T08:36:38.782Z,11.18
2019-05-22T08:39:08.698Z,11.22
2019-05-22T08:41:42.291Z,9.73
2019-05-22T08:44:16.546Z,9.53
2019-05-22T08:46:40.528Z,9.50
2019-05-22T08:49:08.785Z,9.63
2019-05-22T08:51:37.029Z,8.93
2019-05-22T08:54:06.029Z,9.30
2019-05-22T08:56:38.385Z,10.58
2019-05-22T08:59:18.780Z,10.40
2019-05-22T09:01:38.830Z,9.90
2019-05-22T09:04:07.561Z,9.60
2019-05-22T09:06:35.802Z,9.63
2019-05-22T09:09:04.797Z,9.15
2019-05-22T09:11:33.046Z,8.75
2019-05-22T09:14:01.336Z,9.20
2019-05-22T09:16:29.647Z,9.28
2019-05-22T09:18:58.673Z,9.63
2019-05-22T09:21:26.942Z,10.50
2019-05-22T09:23:55.253Z,8.90
2019-05-22T09:26:23.510Z,9.48
2019-05-22T09:28:52.522Z,9.10
2019-05-22T09:31:20.780Z,8.95
2019-05-22T09:33:49.310Z,8.53
2019-05-22T09:36:17.609Z,8.75
2019-05-22T09:38:45.857Z,8.75
2019-05-22T09:41:14.381Z,8.63
2019-05-22T09:43:42.635Z,9.08
2019-05-22T09:46:10.890Z,7.95
2019-05-22T09:48:39.324Z,8.05
2019-05-22T09:51:07.913Z,8.70
2019-05-22T09:53:36.225Z,9.90
2019-05-22T09:56:04.572Z,9.45
2019-05-22T09:58:33.373Z,9.65
2019-05-22T10:01:01.654Z,9.15
2019-05-22T10:03:30.163Z,9.98
2019-05-22T10:05:58.995Z,9.83
2019-05-22T10:08:27.665Z,10.38
2019-05-22T10:10:56.468Z,10.43
2019-05-22T10:13:24.715Z,10.82
2019-05-22T10:15:52.987Z,11.28
2019-05-22T10:18:21.293Z,9.78
2019-05-22T10:20:49.625Z,8.98
2019-05-22T10:23:18.011Z,8.08
2019-05-22T10:25:46.275Z,9.88
2019-05-22T10:28:14.538Z,9.63
2019-05-22T10:30:42.797Z,9.70
2019-05-22T10:33:30.495Z,8.53
2019-05-22T10:35:58.821Z,8.68
2019-05-22T10:38:27.061Z,9.03
2019-05-22T10:40:59.010Z,8.68
2019-05-22T10:43:25.765Z,9.85
2019-05-22T10:45:54.090Z,9.73
2019-05-22T10:48:22.348Z,10.72
2019-05-22T10:50:50.615Z,10.03
2019-05-22T10:53:33.131Z,11.03
2019-05-22T10:55:49.517Z,11.15
2019-05-22T10:58:17.869Z,11.35
2019-05-22T11:00:46.198Z,11.35
2019-05-22T11:03:15.714Z,12.47
2019-05-22T11:05:44.051Z,11.25
2019-05-22T11:08:12.300Z,11.63
2019-05-22T11:10:40.624Z,11.12
2019-05-22T11:13:10.157Z,10.40
2019-05-22T11:15:38.784Z,10.50
2019-05-22T11:18:07.608Z,10.13
2019-05-22T11:20:35.937Z,10.53
2019-05-22T11:23:05.526Z,9.48
2019-05-22T11:25:34.266Z,9.03
2019-05-22T11:28:02.533Z,9.50
2019-05-22T11:30:30.781Z,10.15
2019-05-22T11:32:59.052Z,9.68
2019-05-22T11:35:27.438Z,9.85
2019-05-22T11:37:56.167Z,9.15
2019-05-22T11:40:24.409Z,9.70
2019-05-22T11:42:53.551Z,9.45
2019-05-22T11:45:22.763Z,9.78
2019-05-22T11:47:51.403Z,8.95
2019-05-22T11:50:19.720Z,10.38
2019-05-22T11:52:48.254Z,10.18
2019-05-22T11:55:16.570Z,9.28
2019-05-22T11:57:45.969Z,9.80
2019-05-22T12:00:14.587Z,8.93
2019-05-22T12:02:44.494Z,8.93
2019-05-22T12:05:13.202Z,9.88
2019-05-22T12:07:41.466Z,9.78
2019-05-22T12:10:10.861Z,9.78
2019-05-22T12:12:39.141Z,9.38
2019-05-22T12:15:08.422Z,8.88
2019-05-22T12:17:38.934Z,8.33
2019-05-22T12:20:10.248Z,9.00
2019-05-22T12:22:38.586Z,8.65
2019-05-22T12:25:06.833Z,9.08
2019-05-22T12:27:35.630Z,8.78
2019-05-22T12:30:07.942Z,7.90
2019-05-22T12:32:36.328Z,8.00
2019-05-22T12:35:06.205Z,7.45
2019-05-22T12:37:35.025Z,7.08
2019-05-22T12:40:06.157Z,6.30
2019-05-22T12:42:34.868Z,6.37
2019-05-22T12:45:05.413Z,6.85
2019-05-22T12:47:33.862Z,5.97
2019-05-22T12:50:02.995Z,5.83
2019-05-22T12:52:32.021Z,6.70
2019-05-22T12:55:00.733Z,6.08
2019-05-22T12:57:29.071Z,5.78
2019-05-22T13:00:02.092Z,6.17
2019-05-22T13:02:27.730Z,5.95
2019-05-22T13:04:55.973Z,6.40
2019-05-22T13:07:24.813Z,7.22
2019-05-22T13:09:53.054Z,6.90
2019-05-22T13:12:21.314Z,7.20
2019-05-22T13:14:49.633Z,6.85
2019-05-22T13:17:19.825Z,6.67
2019-05-22T13:19:48.742Z,6.60
2019-05-22T13:22:16.992Z,6.87
2019-05-22T13:24:45.314Z,6.58
2019-05-22T13:27:17.312Z,6.50
2019-05-22T13:29:46.025Z,6.62
2019-05-22T13:32:14.342Z,6.62
2019-05-22T13:34:42.602Z,6.50
2019-05-22T13:37:11.118Z,5.53
2019-05-22T13:39:39.739Z,5.62
2019-05-22T13:42:07.985Z,6.55
2019-05-22T13:44:36.233Z,6.00
2019-05-22T13:47:06.121Z,7.22
2019-05-22T13:49:35.445Z,7.08
2019-05-22T13:52:03.697Z,7.60
2019-05-22T13:54:32.294Z,7.50
2019-05-22T13:57:00.911Z,7.55
2019-05-22T13:59:29.640Z,6.20
2019-05-22T14:01:58.254Z,6.40
2019-05-22T14:04:26.534Z,6.17
2019-05-22T14:06:54.855Z,6.15
2019-05-22T14:09:23.177Z,5.75
2019-05-22T14:11:51.665Z,6.70
2019-05-22T14:14:19.925Z,6.00
2019-05-22T14:16:49.461Z,6.42
2019-05-22T14:19:18.014Z,6.67
2019-05-22T14:21:51.361Z,6.10
2019-05-22T14:24:16.345Z,7.58
2019-05-22T14:26:44.861Z,6.72
2019-05-22T14:29:13.116Z,6.85
2019-05-22T14:31:41.357Z,7.90
2019-05-22T14:34:09.686Z,7.75
2019-05-22T14:36:37.938Z,8.00
2019-05-22T14:39:06.761Z,8.50
2019-05-22T14:41:35.018Z,8.18
2019-05-22T14:44:03.352Z,8.13
2019-05-22T14:46:31.630Z,7.97
2019-05-22T14:48:59.943Z,9.33
2019-05-22T14:51:28.865Z,8.60
2019-05-22T14:53:57.402Z,8.98
2019-05-22T14:56:26.290Z,8.53
2019-05-22T14:58:54.639Z,8.28
2019-05-22T15:01:23.948Z,7.45
2019-05-22T15:03:52.313Z,7.60
2019-05-22T15:06:20.693Z,6.85
2019-05-22T15:08:49.001Z,6.80
2019-05-22T15:11:17.445Z,6.87
2019-05-22T15:13:46.073Z,6.87
2019-05-22T15:16:14.342Z,6.83
2019-05-22T15:18:42.671Z,7.12
2019-05-22T15:21:11.591Z,7.80
2019-05-22T15:23:40.317Z,7.45
2019-05-22T15:26:08.716Z,7.22
2019-05-22T15:28:36.987Z,7.08
2019-05-22T15:31:05.302Z,6.62
2019-05-22T15:33:35.076Z,6.22
2019-05-22T15:36:06.917Z,6.05
2019-05-22T15:38:36.741Z,6.90
2019-05-22T15:41:05.045Z,5.83
2019-05-22T15:43:33.435Z,7.58
2019-05-22T15:46:02.093Z,7.10
2019-05-22T15:48:31.396Z,6.50
2019-05-22T15:51:02.607Z,6.30
2019-05-22T15:53:31.904Z,5.95
2019-05-22T15:56:04.214Z,5.60
2019-05-22T15:58:33.874Z,5.28
2019-05-22T16:01:04.727Z,5.70
2019-05-22T16:03:33.061Z,5.17
2019-05-22T16:06:01.298Z,4.40
2019-05-22T16:08:30.126Z,5.35
2019-05-22T16:11:00.299Z,5.12
2019-05-22T16:13:31.774Z,5.70
2019-05-22T16:16:01.061Z,5.75
2019-05-22T16:18:29.463Z,5.28
2019-05-22T16:20:59.259Z,6.05
2019-05-22T16:23:29.553Z,5.58
2019-05-22T16:25:57.984Z,4.90
2019-05-22T16:28:30.599Z,5.62
2019-05-22T16:30:57.196Z,5.95
2019-05-22T16:33:26.229Z,5.65
2019-05-22T16:35:54.489Z,5.47
2019-05-22T16:38:23.789Z,5.10
2019-05-22T16:40:52.114Z,5.70
2019-05-22T16:43:20.423Z,6.37
2019-05-22T16:45:49.941Z,6.70
2019-05-22T16:48:28.462Z,5.10
2019-05-22T16:50:48.551Z,7.03
2019-05-22T16:53:17.863Z,5.60
2019-05-22T16:55:46.786Z,5.00
2019-05-22T16:58:36.338Z,5.30
2019-05-22T17:01:04.596Z,5.60
2019-05-22T17:03:32.914Z,5.25
2019-05-22T17:06:01.159Z,5.50
2019-05-22T17:08:29.591Z,5.80
2019-05-22T17:10:58.590Z,4.97
2019-05-22T17:13:29.448Z,5.03
2019-05-22T17:15:58.334Z,4.83
2019-05-22T17:18:28.018Z,4.75
2019-05-22T17:20:58.282Z,4.90
2019-05-22T17:23:27.788Z,5.12
2019-05-22T17:25:58.119Z,5.50
2019-05-22T17:28:27.163Z,5.22
2019-05-22T17:30:56.053Z,5.00
2019-05-22T17:33:24.496Z,5.30
2019-05-22T17:35:52.781Z,5.75
2019-05-22T17:38:23.011Z,4.80
2019-05-22T17:40:52.052Z,4.92
2019-05-22T17:43:20.326Z,5.37
2019-05-22T17:45:49.049Z,5.35
2019-05-22T17:48:18.687Z,5.40
2019-05-22T17:50:47.418Z,5.58
2019-05-22T17:53:16.137Z,5.47
2019-05-22T17:55:44.439Z,6.08
2019-05-22T17:58:12.784Z,5.53
2019-05-22T18:00:42.800Z,5.00
2019-05-22T18:03:11.089Z,5.78
2019-05-22T18:05:39.793Z,5.20
2019-05-22T18:08:08.191Z,6.10
2019-05-22T18:10:40.394Z,6.80
2019-05-22T18:13:09.203Z,6.10
2019-05-22T18:15:37.475Z,6.55
2019-05-22T18:18:07.181Z,5.58
2019-05-22T18:20:42.921Z,6.42
2019-05-22T18:23:06.325Z,5.45
2019-05-22T18:25:35.040Z,6.33
2019-05-22T18:28:04.377Z,6.72
2019-05-22T18:30:34.631Z,6.20
2019-05-22T18:33:02.945Z,5.05
2019-05-22T18:35:31.201Z,6.40
2019-05-22T18:37:59.606Z,6.05
2019-05-22T18:40:28.011Z,6.15
2019-05-22T18:42:56.254Z,5.90
2019-05-22T18:45:25.502Z,6.20
2019-05-22T18:47:54.328Z,6.12
2019-05-22T18:50:22.601Z,6.67
2019-05-22T18:52:51.238Z,6.12
2019-05-22T18:55:19.557Z,5.85
2019-05-22T18:57:47.900Z,6.12
2019-05-22T19:00:19.447Z,6.65
2019-05-22T19:02:48.191Z,6.75
2019-05-22T19:05:18.592Z,6.10
2019-05-22T19:07:46.864Z,5.70
2019-05-22T19:10:15.168Z,5.85
2019-05-22T19:12:43.805Z,6.80
2019-05-22T19:15:12.226Z,6.22
2019-05-22T19:17:40.499Z,6.55
2019-05-22T19:20:08.744Z,6.65
2019-05-22T19:22:37.967Z,6.40
2019-05-22T19:25:06.291Z,6.55
2019-05-22T19:27:34.806Z,6.75
2019-05-22T19:30:03.401Z,6.50
2019-05-22T19:32:32.035Z,6.12
2019-05-22T19:35:00.290Z,8.40
2019-05-22T19:37:28.542Z,8.55
2019-05-22T19:39:56.794Z,7.65
2019-05-22T19:42:25.293Z,8.28
2019-05-22T19:44:53.613Z,9.00
2019-05-22T19:47:22.794Z,9.48
2019-05-22T19:49:52.677Z,7.30
2019-05-22T19:52:39.028Z,7.95
2019-05-22T19:54:53.405Z,7.75
2019-05-22T19:57:23.868Z,7.55
2019-05-22T19:59:52.116Z,6.70
2019-05-22T20:02:20.847Z,7.28
2019-05-22T20:04:49.089Z,8.55
2019-05-22T20:07:17.724Z,8.90
2019-05-22T20:09:46.339Z,8.88
2019-05-22T20:12:16.619Z,8.90
2019-05-22T20:14:44.866Z,9.98
2019-05-22T20:17:13.604Z,9.48
2019-05-22T20:19:42.599Z,9.20
2019-05-22T20:22:11.001Z,9.18
2019-05-22T20:24:39.609Z,8.75
2019-05-22T20:27:09.745Z,8.65
2019-05-22T20:29:38.361Z,8.25
2019-05-22T20:32:07.829Z,8.48
2019-05-22T20:34:36.077Z,8.30
2019-05-22T20:37:04.900Z,8.05
2019-05-22T20:39:33.150Z,8.10
2019-05-22T20:42:01.678Z,8.03
2019-05-22T20:44:30.193Z,7.42
2019-05-22T20:46:58.722Z,7.67
2019-05-22T20:49:26.977Z,8.40
2019-05-22T20:51:55.240Z,8.00
2019-05-22T20:54:24.456Z,8.95
2019-05-22T20:56:55.056Z,8.23
2019-05-22T20:59:24.290Z,8.85
2019-05-22T21:01:53.301Z,9.70
2019-05-22T21:04:22.628Z,9.25
2019-05-22T21:06:53.670Z,10.38
2019-05-22T21:09:22.101Z,10.75
2019-05-22T21:11:50.365Z,12.65
2019-05-22T21:14:18.697Z,11.48
2019-05-22T21:16:47.924Z,10.95
2019-05-22T21:19:16.191Z,11.28
2019-05-22T21:21:44.695Z,9.90
2019-05-22T21:24:13.621Z,9.85
2019-05-22T21:26:42.610Z,11.65
2019-05-22T21:29:11.314Z,10.30
2019-05-22T21:31:39.944Z,10.82
2019-05-22T21:34:08.667Z,10.03
2019-05-22T21:36:36.986Z,10.15
2019-05-22T21:39:08.458Z,10.55
2019-05-22T21:41:36.785Z,10.28
2019-05-22T21:44:05.218Z,10.20
2019-05-22T21:46:33.842Z,9.15
2019-05-22T21:49:03.750Z,11.03
2019-05-22T21:51:32.557Z,11.30
2019-05-22T21:54:01.190Z,11.10
2019-05-22T21:56:29.906Z,10.10
2019-05-22T21:58:58.176Z,11.25
2019-05-22T22:01:28.129Z,11.93
2019-05-22T22:04:01.196Z,11.18
2019-05-22T22:06:33.035Z,10.43
2019-05-22T22:09:00.068Z,10.98
2019-05-22T22:11:28.327Z,11.40
2019-05-22T22:13:57.821Z,10.82
2019-05-22T22:16:27.037Z,12.30
2019-05-22T22:18:56.031Z,12.45
2019-05-22T22:21:24.724Z,13.43
2019-05-22T22:23:53.344Z,14.30
2019-05-22T22:26:26.163Z,12.88
2019-05-22T22:28:52.080Z,12.40
2019-05-22T22:31:21.958Z,12.58
2019-05-22T22:33:53.981Z,12.95
2019-05-22T22:36:22.227Z,12.55
2019-05-22T22:38:51.655Z,13.03
2019-05-22T22:41:19.971Z,13.72
2019-05-22T22:43:49.121Z,12.98
2019-05-22T22:46:27.584Z,13.20
2019-05-22T22:48:57.785Z,12.33
2019-05-22T22:51:26.032Z,12.30
2019-05-22T22:53:56.429Z,13.05
2019-05-22T22:56:25.325Z,12.47
2019-05-22T22:58:53.745Z,12.55
2019-05-22T23:01:27.691Z,12.65
2019-05-22T23:03:56.716Z,12.93
2019-05-22T23:06:25.931Z,13.22
2019-05-22T23:08:54.261Z,12.13
2019-05-22T23:11:22.580Z,12.55
2019-05-22T23:13:50.912Z,13.22
2019-05-22T23:16:21.009Z,13.62
2019-05-22T23:19:11.245Z,13.70
2019-05-22T23:21:40.167Z,13.90
2019-05-22T23:24:09.193Z,13.80
2019-05-22T23:26:38.515Z,12.75
2019-05-22T23:29:08.412Z,14.47
2019-05-22T23:31:38.337Z,14.25
2019-05-22T23:34:06.865Z,14.07
2019-05-22T23:36:35.383Z,13.22
2019-05-22T23:39:07.165Z,12.13
2019-05-22T23:41:37.047Z,12.80
2019-05-22T23:44:06.041Z,11.55
2019-05-22T23:46:35.356Z,11.10
2019-05-22T23:49:03.990Z,10.70
2019-05-22T23:51:32.234Z,12.05
2019-05-22T23:54:01.977Z,11.78
2019-05-22T23:56:30.683Z,10.85
2019-05-22T23:58:59.011Z,11.03
